createdAt,value
2019-02-16T00:01:06.528Z,27.23
2019-02-16T00:03:38.225Z,22.30
2019-02-16T00:06:10.025Z,23.13
2019-02-16T00:08:41.448Z,23.53
2019-02-16T00:11:13.042Z,23.00
2019-02-16T00:13:44.275Z,23.60
2019-02-16T00:16:15.984Z,24.03
2019-02-16T00:18:47.606Z,24.77
2019-02-16T00:21:24.663Z,27.30
2019-02-16T00:23:56.712Z,23.87
2019-02-16T00:26:28.111Z,25.53
2019-02-16T00:28:59.578Z,23.50
2019-02-16T00:31:31.521Z,23.60
2019-02-16T00:34:04.064Z,22.67
2019-02-16T00:36:35.548Z,25.60
2019-02-16T00:39:07.042Z,22.47
2019-02-16T00:41:38.822Z,23.23
2019-02-16T00:44:10.948Z,22.67
2019-02-16T00:46:42.355Z,24.40
2019-02-16T00:49:14.230Z,24.60
2019-02-16T00:51:46.264Z,22.37
2019-02-16T00:54:17.750Z,22.13
2019-02-16T00:56:49.197Z,24.17
2019-02-16T00:59:21.260Z,21.63
2019-02-16T01:01:53.097Z,23.07
2019-02-16T01:04:24.389Z,23.47
2019-02-16T01:06:55.887Z,20.97
2019-02-16T01:09:27.209Z,21.63
2019-02-16T01:11:58.830Z,20.87
2019-02-16T01:14:30.423Z,22.37
2019-02-16T01:17:01.900Z,19.00
2019-02-16T01:19:33.441Z,21.47
2019-02-16T01:22:05.060Z,17.80
2019-02-16T01:24:36.660Z,21.73
2019-02-16T01:27:08.037Z,22.13
2019-02-16T01:29:39.785Z,22.63
2019-02-16T01:32:11.724Z,22.47
2019-02-16T01:34:43.258Z,23.40
2019-02-16T01:37:14.631Z,23.37
2019-02-16T01:39:46.404Z,22.37
2019-02-16T01:42:18.014Z,21.60
2019-02-16T01:44:49.341Z,21.43
2019-02-16T01:47:20.934Z,18.43
2019-02-16T01:49:52.736Z,19.90
2019-02-16T01:52:24.310Z,19.20
2019-02-16T01:54:56.760Z,19.30
2019-02-16T01:57:28.238Z,19.97
2019-02-16T01:59:59.752Z,20.27
2019-02-16T02:02:31.272Z,19.07
2019-02-16T02:05:03.212Z,18.70
2019-02-16T02:07:34.608Z,18.10
2019-02-16T02:10:06.858Z,18.10
2019-02-16T02:12:38.472Z,18.07
2019-02-16T02:15:10.557Z,17.63
2019-02-16T02:17:41.814Z,19.00
2019-02-16T02:20:13.207Z,19.73
2019-02-16T02:22:44.759Z,19.60
2019-02-16T02:25:16.104Z,18.67
2019-02-16T02:27:47.655Z,21.43
2019-02-16T02:30:20.113Z,20.77
2019-02-16T02:32:51.906Z,18.57
2019-02-16T02:35:23.294Z,19.63
2019-02-16T02:37:54.996Z,19.60
2019-02-16T02:40:26.347Z,18.77
2019-02-16T02:42:57.898Z,19.77
2019-02-16T02:45:29.425Z,19.57
2019-02-16T02:48:00.898Z,19.03
2019-02-16T02:50:32.245Z,19.93
2019-02-16T02:53:03.546Z,19.17
2019-02-16T02:55:34.872Z,19.07
2019-02-16T02:58:06.267Z,18.20
2019-02-16T03:00:37.830Z,19.97
2019-02-16T03:03:10.012Z,21.27
2019-02-16T03:05:41.603Z,20.83
2019-02-16T03:08:13.118Z,18.90
2019-02-16T03:10:44.700Z,18.53
2019-02-16T03:13:15.889Z,18.57
2019-02-16T03:15:47.405Z,19.20
2019-02-16T03:18:18.836Z,18.73
2019-02-16T03:20:50.539Z,17.97
2019-02-16T03:23:22.914Z,18.03
2019-02-16T03:26:01.664Z,16.43
2019-02-16T03:28:43.155Z,16.73
2019-02-16T03:31:48.999Z,17.07
2019-02-16T03:34:31.318Z,17.27
2019-02-16T03:37:37.877Z,17.30
2019-02-16T03:40:09.647Z,17.23
2019-02-16T03:42:41.145Z,17.30
2019-02-16T03:45:12.883Z,17.33
2019-02-16T03:47:44.422Z,17.10
2019-02-16T03:50:15.646Z,16.67
2019-02-16T03:52:47.440Z,18.97
2019-02-16T03:55:19.395Z,18.67
2019-02-16T03:57:51.074Z,17.57
2019-02-16T04:00:22.255Z,18.70
2019-02-16T04:02:54.702Z,18.00
2019-02-16T04:05:26.234Z,18.63
2019-02-16T04:07:57.638Z,18.50
2019-02-16T04:10:29.334Z,19.97
2019-02-16T04:13:01.008Z,20.87
2019-02-16T04:15:32.383Z,20.10
2019-02-16T04:18:03.708Z,20.37
2019-02-16T04:20:35.114Z,19.53
2019-02-16T04:23:06.843Z,19.57
2019-02-16T04:25:38.428Z,20.27
2019-02-16T04:28:10.247Z,23.03
2019-02-16T04:30:41.753Z,23.13
2019-02-16T04:33:13.089Z,20.80
2019-02-16T04:35:44.435Z,21.07
2019-02-16T04:38:15.887Z,20.57
2019-02-16T04:40:47.329Z,18.80
2019-02-16T04:43:18.698Z,18.67
2019-02-16T04:45:50.417Z,17.53
2019-02-16T04:48:21.780Z,16.60
2019-02-16T04:50:53.626Z,16.87
2019-02-16T04:53:24.896Z,17.53
2019-02-16T04:55:56.283Z,17.07
2019-02-16T04:58:27.745Z,18.17
2019-02-16T05:00:59.178Z,19.37
2019-02-16T05:03:30.448Z,20.70
2019-02-16T05:06:02.130Z,20.40
2019-02-16T05:08:33.511Z,20.30
2019-02-16T05:11:05.257Z,18.87
2019-02-16T05:13:36.519Z,19.57
2019-02-16T05:16:07.936Z,20.37
2019-02-16T05:18:39.593Z,20.70
2019-02-16T05:21:11.658Z,20.10
2019-02-16T05:23:43.188Z,23.73
2019-02-16T05:26:14.770Z,23.73
2019-02-16T05:28:46.531Z,22.43
2019-02-16T05:31:18.320Z,22.30
2019-02-16T05:33:50.417Z,21.90
2019-02-16T05:36:21.924Z,20.77
2019-02-16T05:38:53.857Z,22.37
2019-02-16T05:41:25.411Z,21.47
2019-02-16T05:43:56.856Z,20.93
2019-02-16T05:46:28.235Z,19.87
2019-02-16T05:48:59.921Z,21.20
2019-02-16T05:51:31.521Z,20.53
2019-02-16T05:54:02.975Z,20.10
2019-02-16T05:56:35.402Z,19.57
2019-02-16T05:59:08.198Z,18.67
2019-02-16T06:01:40.432Z,20.23
2019-02-16T06:04:12.247Z,18.33
2019-02-16T06:06:43.811Z,19.43
2019-02-16T06:09:15.235Z,18.37
2019-02-16T06:11:46.982Z,18.13
2019-02-16T06:14:18.611Z,18.57
2019-02-16T06:16:50.326Z,17.73
2019-02-16T06:19:21.968Z,19.97
2019-02-16T06:21:53.813Z,18.13
2019-02-16T06:24:25.360Z,17.97
2019-02-16T06:26:57.665Z,16.90
2019-02-16T06:29:29.329Z,17.53
2019-02-16T06:32:01.169Z,16.60
2019-02-16T06:34:32.590Z,17.43
2019-02-16T06:37:20.462Z,16.83
2019-02-16T06:39:53.289Z,18.00
2019-02-16T06:42:25.804Z,17.70
2019-02-16T06:44:57.392Z,16.83
2019-02-16T06:47:28.918Z,16.50
2019-02-16T06:50:00.265Z,16.87
2019-02-16T06:52:31.889Z,16.40
2019-02-16T06:55:03.416Z,15.57
2019-02-16T06:57:34.908Z,17.27
2019-02-16T07:00:07.516Z,11.20
2019-02-16T07:02:39.553Z,15.63
2019-02-16T07:05:11.541Z,16.40
2019-02-16T07:07:43.052Z,12.27
2019-02-16T07:10:14.377Z,13.20
2019-02-16T07:12:51.730Z,11.50
2019-02-16T07:15:23.190Z,11.67
2019-02-16T07:18:16.476Z,11.43
2019-02-16T07:20:48.313Z,12.37
2019-02-16T07:23:22.500Z,12.27
2019-02-16T07:25:53.958Z,11.87
2019-02-16T07:28:25.423Z,10.33
2019-02-16T07:30:57.666Z,11.63
2019-02-16T07:33:29.291Z,10.47
2019-02-16T07:36:00.758Z,10.63
2019-02-16T07:38:32.261Z,13.93
2019-02-16T07:41:03.668Z,14.07
2019-02-16T07:43:54.005Z,14.13
2019-02-16T07:46:45.337Z,15.07
2019-02-16T07:49:45.698Z,14.40
2019-02-16T07:52:31.591Z,14.27
2019-02-16T07:55:21.477Z,16.37
2019-02-16T07:58:05.410Z,16.30
2019-02-16T08:00:54.918Z,16.83
2019-02-16T08:03:39.706Z,16.77
2019-02-16T08:06:21.036Z,16.10
2019-02-16T08:09:09.340Z,14.83
2019-02-16T08:12:00.131Z,14.57
2019-02-16T08:14:43.991Z,14.33
2019-02-16T08:17:46.431Z,14.30
2019-02-16T08:20:25.183Z,16.40
2019-02-16T08:23:13.359Z,16.73
2019-02-16T08:26:03.713Z,16.57
2019-02-16T08:28:43.737Z,18.37
2019-02-16T08:31:32.795Z,17.97
2019-02-16T08:34:32.610Z,18.00
2019-02-16T08:37:21.980Z,18.20
2019-02-16T08:40:00.668Z,18.30
2019-02-16T08:42:59.300Z,17.97
2019-02-16T08:45:37.889Z,18.47
2019-02-16T08:48:18.932Z,16.17
2019-02-16T08:50:56.271Z,19.00
2019-02-16T08:53:34.954Z,11.90
2019-02-16T08:56:34.502Z,12.23
2019-02-16T08:59:31.741Z,10.63
2019-02-16T09:02:13.475Z,9.20
2019-02-16T09:05:04.119Z,11.00
2019-02-16T09:07:57.544Z,10.03
2019-02-16T09:10:46.842Z,10.20
2019-02-16T09:13:40.259Z,10.37
2019-02-16T09:16:31.656Z,10.60
2019-02-16T09:19:22.182Z,10.70
2019-02-16T09:22:13.854Z,10.60
2019-02-16T09:25:07.424Z,10.53
2019-02-16T09:27:49.191Z,10.17
2019-02-16T09:30:33.374Z,10.07
2019-02-16T09:33:19.091Z,10.23
2019-02-16T09:36:16.953Z,8.60
2019-02-16T09:39:06.161Z,8.97
2019-02-16T09:42:11.762Z,8.77
2019-02-16T09:45:02.068Z,6.97
2019-02-16T09:47:47.693Z,7.10
2019-02-16T09:50:37.133Z,7.90
2019-02-16T09:53:33.991Z,7.07
2019-02-16T09:56:23.108Z,7.63
2019-02-16T09:59:12.206Z,7.73
2019-02-16T10:02:05.817Z,7.93
2019-02-16T10:05:04.242Z,7.13
2019-02-16T10:07:46.368Z,7.13
2019-02-16T10:10:29.438Z,7.03
2019-02-16T10:13:32.507Z,7.47
2019-02-16T10:16:21.550Z,7.77
2019-02-16T10:19:12.304Z,7.43
2019-02-16T10:22:02.633Z,7.20
2019-02-16T10:24:57.269Z,7.40
2019-02-16T10:27:47.816Z,6.80
2019-02-16T10:30:47.836Z,6.80
2019-02-16T10:33:28.852Z,7.23
2019-02-16T10:36:34.494Z,6.60
2019-02-16T10:39:22.779Z,6.53
2019-02-16T10:42:16.915Z,6.10
2019-02-16T10:44:59.653Z,6.10
2019-02-16T10:47:52.651Z,5.93
2019-02-16T10:50:32.146Z,6.03
2019-02-16T10:53:09.567Z,5.97
2019-02-16T10:55:57.585Z,5.50
2019-02-16T10:59:06.304Z,7.10
2019-02-16T11:01:48.645Z,6.33
2019-02-16T11:04:37.917Z,6.70
2019-02-16T11:07:13.113Z,6.53
2019-02-16T11:10:03.516Z,6.33
2019-02-16T11:12:55.563Z,5.70
2019-02-16T11:16:04.357Z,6.73
2019-02-16T11:18:54.781Z,6.30
2019-02-16T11:21:47.007Z,6.00
2019-02-16T11:24:46.476Z,5.70
2019-02-16T11:27:28.397Z,5.10
2019-02-16T11:30:18.799Z,5.60
2019-02-16T11:33:08.951Z,5.13
2019-02-16T11:36:05.597Z,4.67
2019-02-16T11:39:00.595Z,4.00
2019-02-16T11:41:48.689Z,4.23
2019-02-16T11:44:26.839Z,4.53
2019-02-16T11:47:17.007Z,4.60
2019-02-16T11:50:05.878Z,3.83
2019-02-16T11:52:55.399Z,4.40
2019-02-16T11:55:47.132Z,4.13
2019-02-16T11:58:37.703Z,4.27
2019-02-16T12:01:27.998Z,4.23
2019-02-16T12:04:05.187Z,3.90
2019-02-16T12:06:43.494Z,4.00
2019-02-16T12:09:20.451Z,4.10
2019-02-16T12:12:20.746Z,4.40
2019-02-16T12:15:14.591Z,4.40
2019-02-16T12:18:13.055Z,4.00
2019-02-16T12:21:06.201Z,4.33
2019-02-16T12:23:56.947Z,4.50
2019-02-16T12:26:39.831Z,4.23
2019-02-16T12:29:30.517Z,3.90
2019-02-16T12:32:24.990Z,3.73
2019-02-16T12:35:18.368Z,4.30
2019-02-16T12:38:01.933Z,3.80
2019-02-16T12:40:55.317Z,4.10
2019-02-16T12:43:51.846Z,4.20
2019-02-16T12:46:42.089Z,4.20
2019-02-16T12:49:44.446Z,3.73
2019-02-16T12:52:26.755Z,4.30
2019-02-16T12:55:26.625Z,4.67
2019-02-16T12:58:14.015Z,4.70
2019-02-16T13:00:55.906Z,4.27
2019-02-16T13:03:46.292Z,4.90
2019-02-16T13:06:39.455Z,4.70
2019-02-16T13:09:23.656Z,5.07
2019-02-16T13:12:20.387Z,4.33
2019-02-16T13:15:25.907Z,4.07
2019-02-16T13:18:16.234Z,3.83
2019-02-16T13:20:57.637Z,3.63
2019-02-16T13:24:00.100Z,3.77
2019-02-16T13:27:06.544Z,4.40
2019-02-16T13:30:12.797Z,4.37
2019-02-16T13:32:58.096Z,4.40
2019-02-16T13:35:55.066Z,4.37
2019-02-16T13:38:48.825Z,4.30
2019-02-16T13:41:37.967Z,4.30
2019-02-16T13:44:31.112Z,4.67
2019-02-16T13:47:13.558Z,4.57
2019-02-16T13:49:58.425Z,3.93
2019-02-16T13:52:55.372Z,4.07
2019-02-16T13:55:35.722Z,4.70
2019-02-16T13:58:32.498Z,4.17
2019-02-16T14:01:20.435Z,4.50
2019-02-16T14:04:07.047Z,5.20
2019-02-16T14:06:49.002Z,4.47
2019-02-16T14:09:34.221Z,4.73
2019-02-16T14:12:21.076Z,4.63
2019-02-16T14:15:17.810Z,4.23
2019-02-16T14:17:51.520Z,4.93
2019-02-16T14:20:22.458Z,5.00
2019-02-16T14:22:59.347Z,4.60
2019-02-16T14:25:45.581Z,4.80
2019-02-16T14:28:16.634Z,4.63
2019-02-16T14:30:48.186Z,4.60
2019-02-16T14:33:19.818Z,4.73
2019-02-16T14:35:51.566Z,4.67
2019-02-16T14:38:56.924Z,4.80
2019-02-16T14:41:28.476Z,4.67
2019-02-16T14:43:59.889Z,5.30
2019-02-16T14:46:31.165Z,4.77
2019-02-16T14:49:02.813Z,4.83
2019-02-16T14:51:37.195Z,4.50
2019-02-16T14:54:09.135Z,4.80
2019-02-16T14:56:40.572Z,4.70
2019-02-16T14:59:12.148Z,5.10
2019-02-16T15:01:43.652Z,5.30
2019-02-16T15:04:15.072Z,4.90
2019-02-16T15:06:46.882Z,4.97
2019-02-16T15:09:18.355Z,5.00
2019-02-16T15:11:50.579Z,5.00
2019-02-16T15:14:22.425Z,5.00
2019-02-16T15:16:53.927Z,5.10
2019-02-16T15:19:25.820Z,5.80
2019-02-16T15:21:57.442Z,6.23
2019-02-16T15:24:28.741Z,7.33
2019-02-16T15:27:00.405Z,6.40
2019-02-16T15:29:31.800Z,5.83
2019-02-16T15:32:03.747Z,5.50
2019-02-16T15:34:35.182Z,5.37
2019-02-16T15:37:07.678Z,5.70
2019-02-16T15:39:39.594Z,9.13
2019-02-16T15:42:11.641Z,11.47
2019-02-16T15:44:43.340Z,7.70
2019-02-16T15:47:14.963Z,7.43
2019-02-16T15:49:46.607Z,6.20
2019-02-16T15:52:18.058Z,6.87
2019-02-16T15:54:49.875Z,5.80
2019-02-16T15:57:21.544Z,6.03
2019-02-16T15:59:53.460Z,6.27
2019-02-16T16:02:30.130Z,6.97
2019-02-16T16:05:01.599Z,7.40
2019-02-16T16:07:33.143Z,7.17
2019-02-16T16:10:22.552Z,7.67
2019-02-16T16:13:18.092Z,8.57
2019-02-16T16:15:58.530Z,8.77
2019-02-16T16:18:48.080Z,10.80
2019-02-16T16:21:30.003Z,11.23
2019-02-16T16:24:18.974Z,12.27
2019-02-16T16:27:11.051Z,13.00
2019-02-16T16:30:01.965Z,15.77
2019-02-16T16:32:41.335Z,12.33
2019-02-16T16:35:38.082Z,9.23
2019-02-16T16:38:31.498Z,13.27
2019-02-16T16:41:37.581Z,9.97
2019-02-16T16:44:34.985Z,8.43
2019-02-16T16:47:24.460Z,10.10
2019-02-16T16:50:18.673Z,9.23
2019-02-16T16:53:13.844Z,9.97
2019-02-16T16:55:53.933Z,9.70
2019-02-16T16:58:43.465Z,9.67
2019-02-16T17:01:28.815Z,11.17
2019-02-16T17:04:24.187Z,10.50
2019-02-16T17:07:20.530Z,10.10
2019-02-16T17:10:09.929Z,9.83
2019-02-16T17:13:06.588Z,9.87
2019-02-16T17:15:53.321Z,10.50
2019-02-16T17:18:50.493Z,11.30
2019-02-16T17:21:53.482Z,11.13
2019-02-16T17:24:42.817Z,11.70
2019-02-16T17:27:29.997Z,13.00
2019-02-16T17:30:15.990Z,13.37
2019-02-16T17:33:09.395Z,12.33
2019-02-16T17:35:53.820Z,12.70
2019-02-16T17:38:44.021Z,10.67
2019-02-16T17:41:33.332Z,9.57
2019-02-16T17:44:21.015Z,10.07
2019-02-16T17:47:23.411Z,9.47
2019-02-16T17:50:12.773Z,10.80
2019-02-16T17:52:58.774Z,11.37
2019-02-16T17:55:51.865Z,12.47
2019-02-16T17:58:45.389Z,15.03
2019-02-16T18:01:48.590Z,15.07
2019-02-16T18:04:38.527Z,12.87
2019-02-16T18:07:28.841Z,12.40
2019-02-16T18:10:05.764Z,13.70
2019-02-16T18:12:50.935Z,14.00
2019-02-16T18:15:59.730Z,14.00
2019-02-16T18:18:53.169Z,15.83
2019-02-16T18:21:36.447Z,13.03
2019-02-16T18:24:45.356Z,12.80
2019-02-16T18:27:31.545Z,12.33
2019-02-16T18:30:18.347Z,11.47
2019-02-16T18:33:09.152Z,13.80
2019-02-16T18:35:59.492Z,12.93
2019-02-16T18:38:38.477Z,12.97
2019-02-16T18:41:27.504Z,12.47
2019-02-16T18:44:16.791Z,14.73
2019-02-16T18:46:59.547Z,13.80
2019-02-16T18:49:48.557Z,15.80
2019-02-16T18:52:27.780Z,13.90
2019-02-16T18:55:18.145Z,12.40
2019-02-16T18:58:07.605Z,15.30
2019-02-16T19:00:55.548Z,12.77
2019-02-16T19:03:56.619Z,13.03
2019-02-16T19:06:53.341Z,12.33
2019-02-16T19:09:50.193Z,12.23
2019-02-16T19:12:46.277Z,13.57
2019-02-16T19:15:29.270Z,12.97
2019-02-16T19:18:22.338Z,12.93
2019-02-16T19:21:24.998Z,9.90
2019-02-16T19:24:14.507Z,11.47
2019-02-16T19:27:03.620Z,11.17
2019-02-16T19:29:52.634Z,10.43
2019-02-16T19:32:43.645Z,11.40
2019-02-16T19:35:23.965Z,9.40
2019-02-16T19:38:32.491Z,9.53
2019-02-16T19:41:31.884Z,8.70
2019-02-16T19:44:20.684Z,9.10
2019-02-16T19:47:03.394Z,9.20
2019-02-16T19:49:51.320Z,7.53
2019-02-16T19:52:41.754Z,8.77
2019-02-16T19:55:32.970Z,8.50
2019-02-16T19:58:20.470Z,8.07
2019-02-16T20:01:09.621Z,9.37
2019-02-16T20:03:53.459Z,8.00
2019-02-16T20:06:43.928Z,7.93
2019-02-16T20:09:40.320Z,8.10
2019-02-16T20:12:34.189Z,8.07
2019-02-16T20:15:16.165Z,8.57
2019-02-16T20:18:06.733Z,8.17
2019-02-16T20:20:59.929Z,8.17
2019-02-16T20:23:41.273Z,7.67
2019-02-16T20:26:39.062Z,8.03
2019-02-16T20:29:29.731Z,8.90
2019-02-16T20:32:24.370Z,8.63
2019-02-16T20:35:14.970Z,9.10
2019-02-16T20:38:11.075Z,9.77
2019-02-16T20:41:04.415Z,9.23
2019-02-16T20:43:55.683Z,9.83
2019-02-16T20:46:52.041Z,9.97
2019-02-16T20:49:41.189Z,11.00
2019-02-16T20:52:34.679Z,10.27
2019-02-16T20:55:28.245Z,10.77
2019-02-16T20:58:27.730Z,10.40
2019-02-16T21:01:16.781Z,11.53
2019-02-16T21:04:10.618Z,11.03
2019-02-16T21:07:02.519Z,11.33
2019-02-16T21:09:42.739Z,11.07
2019-02-16T21:12:36.210Z,10.83
2019-02-16T21:15:45.554Z,10.03
2019-02-16T21:18:30.979Z,10.07
2019-02-16T21:21:20.976Z,9.60
2019-02-16T21:24:09.139Z,10.03
2019-02-16T21:27:17.787Z,8.77
2019-02-16T21:30:08.072Z,9.90
2019-02-16T21:32:47.520Z,9.47
2019-02-16T21:35:37.091Z,9.73
2019-02-16T21:38:15.577Z,9.47
2019-02-16T21:41:00.800Z,10.77
2019-02-16T21:44:13.622Z,10.10
2019-02-16T21:47:09.584Z,10.40
2019-02-16T21:50:06.036Z,10.10
2019-02-16T21:52:59.914Z,10.57
2019-02-16T21:56:01.396Z,9.77
2019-02-16T21:58:46.342Z,9.90
2019-02-16T22:01:34.336Z,9.63
2019-02-16T22:04:16.235Z,9.40
2019-02-16T22:07:12.903Z,10.23
2019-02-16T22:10:02.081Z,10.33
2019-02-16T22:12:45.645Z,9.60
2019-02-16T22:15:17.206Z,9.07
2019-02-16T22:17:48.767Z,10.70
2019-02-16T22:20:20.621Z,9.57
2019-02-16T22:22:52.299Z,10.20
2019-02-16T22:25:24.051Z,11.13
2019-02-16T22:27:55.843Z,10.50
2019-02-16T22:30:27.355Z,10.60
2019-02-16T22:33:04.315Z,10.80
2019-02-16T22:35:35.629Z,10.77
2019-02-16T22:38:07.242Z,10.77
2019-02-16T22:40:39.028Z,11.80
2019-02-16T22:43:11.070Z,12.03
2019-02-16T22:45:42.568Z,11.60
2019-02-16T22:48:13.976Z,12.67
2019-02-16T22:50:45.647Z,12.67
2019-02-16T22:53:17.141Z,13.30
2019-02-16T22:55:48.540Z,14.30
2019-02-16T22:58:28.463Z,13.17
2019-02-16T23:00:54.267Z,13.37
2019-02-16T23:03:26.685Z,13.93
2019-02-16T23:05:58.174Z,13.20
2019-02-16T23:08:29.645Z,14.33
2019-02-16T23:11:01.691Z,14.67
2019-02-16T23:13:33.445Z,13.73
2019-02-16T23:16:06.594Z,14.70
2019-02-16T23:18:39.090Z,14.63
2019-02-16T23:21:11.245Z,14.60
2019-02-16T23:23:44.325Z,14.77
2019-02-16T23:26:20.311Z,14.77
2019-02-16T23:28:52.756Z,14.60
2019-02-16T23:31:35.109Z,15.83
2019-02-16T23:34:07.540Z,15.47
2019-02-16T23:36:39.949Z,15.37
2019-02-16T23:39:13.679Z,17.07
2019-02-16T23:41:45.764Z,17.23
2019-02-16T23:44:17.806Z,16.93
2019-02-16T23:46:51.641Z,16.40
2019-02-16T23:49:24.012Z,15.30
2019-02-16T23:51:55.993Z,17.27
2019-02-16T23:54:29.101Z,16.90
2019-02-16T23:57:01.485Z,17.10
2019-02-16T23:59:34.877Z,17.37
